createdAt,value
2023-04-18T00:00:40.137Z,19.01
2023-04-18T00:01:40.184Z,19.90
2023-04-18T00:02:40.356Z,19.18
2023-04-18T00:03:40.484Z,19.14
2023-04-18T00:04:40.357Z,19.25
2023-04-18T00:05:40.315Z,19.85
2023-04-18T00:06:40.346Z,20.50
2023-04-18T00:07:40.389Z,19.51
2023-04-18T00:08:40.438Z,19.21
2023-04-18T00:09:40.497Z,19.51
2023-04-18T00:10:40.501Z,18.84
2023-04-18T00:11:40.543Z,18.37
2023-04-18T00:12:40.569Z,17.93
2023-04-18T00:13:40.621Z,17.94
2023-04-18T00:14:40.647Z,17.82
2023-04-18T00:15:40.699Z,18.29
2023-04-18T00:16:40.803Z,18.48
2023-04-18T00:17:40.808Z,18.50
2023-04-18T00:18:40.792Z,18.47
2023-04-18T00:19:40.853Z,17.97
2023-04-18T00:20:40.888Z,17.81
2023-04-18T00:21:40.933Z,17.63
2023-04-18T00:22:40.957Z,17.79
2023-04-18T00:23:41.012Z,17.72
2023-04-18T00:24:41.037Z,17.45
2023-04-18T00:25:41.076Z,17.01
2023-04-18T00:26:41.139Z,17.47
2023-04-18T00:27:41.147Z,16.83
2023-04-18T00:28:41.199Z,16.82
2023-04-18T00:29:41.234Z,17.42
2023-04-18T00:30:41.289Z,17.24
2023-04-18T00:31:41.303Z,17.67
2023-04-18T00:32:41.395Z,17.74
2023-04-18T00:33:41.393Z,17.27
2023-04-18T00:34:41.429Z,17.90
2023-04-18T00:35:41.546Z,17.28
2023-04-18T00:36:41.501Z,17.60
2023-04-18T00:37:41.499Z,17.11
2023-04-18T00:38:41.523Z,17.47
2023-04-18T00:39:41.593Z,17.12
2023-04-18T00:40:41.612Z,17.30
2023-04-18T00:41:41.648Z,17.17
2023-04-18T00:42:41.674Z,17.69
2023-04-18T00:43:41.717Z,17.54
2023-04-18T00:44:41.754Z,17.31
2023-04-18T00:45:41.799Z,17.27
2023-04-18T00:46:41.837Z,17.15
2023-04-18T00:47:41.901Z,17.26
2023-04-18T00:48:41.881Z,17.76
2023-04-18T00:49:41.952Z,17.62
2023-04-18T00:50:41.969Z,17.88
2023-04-18T00:51:42.075Z,18.09
2023-04-18T00:52:42.071Z,18.58
2023-04-18T00:53:42.093Z,17.32
2023-04-18T00:54:42.155Z,16.89
2023-04-18T00:55:42.187Z,17.23
2023-04-18T00:56:42.200Z,16.90
2023-04-18T00:57:42.270Z,16.86
2023-04-18T00:58:42.293Z,16.76
2023-04-18T00:59:42.344Z,16.88
2023-04-18T01:00:42.351Z,17.20
2023-04-18T01:01:42.414Z,17.13
2023-04-18T01:02:42.573Z,16.81
2023-04-18T01:03:42.673Z,17.09
2023-04-18T01:04:42.740Z,16.81
2023-04-18T01:05:42.552Z,17.10
2023-04-18T01:06:42.580Z,16.66
2023-04-18T01:07:42.612Z,16.84
2023-04-18T01:08:42.653Z,16.29
2023-04-18T01:09:42.692Z,16.43
2023-04-18T01:10:42.736Z,16.82
2023-04-18T01:11:42.765Z,16.75
2023-04-18T01:12:42.807Z,17.09
2023-04-18T01:13:42.834Z,16.16
2023-04-18T01:14:42.886Z,17.06
2023-04-18T01:15:42.952Z,17.02
2023-04-18T01:16:42.966Z,16.99
2023-04-18T01:17:43.030Z,17.20
2023-04-18T01:18:43.042Z,16.88
2023-04-18T01:19:43.066Z,16.44
2023-04-18T01:20:43.124Z,15.91
2023-04-18T01:21:43.138Z,15.69
2023-04-18T01:22:43.200Z,16.54
2023-04-18T01:23:43.214Z,16.06
2023-04-18T01:24:43.264Z,16.38
2023-04-18T01:25:43.294Z,16.05
2023-04-18T01:26:43.322Z,15.70
2023-04-18T01:27:43.382Z,15.82
2023-04-18T01:28:43.394Z,16.09
2023-04-18T01:29:43.453Z,15.83
2023-04-18T01:30:43.493Z,15.56
2023-04-18T01:31:43.619Z,16.05
2023-04-18T01:32:43.602Z,15.72
2023-04-18T01:33:43.615Z,15.62
2023-04-18T01:34:43.656Z,15.66
2023-04-18T01:35:43.704Z,15.73
2023-04-18T01:36:43.740Z,15.77
2023-04-18T01:37:43.757Z,15.67
2023-04-18T01:38:43.789Z,15.67
2023-04-18T01:39:43.852Z,15.60
2023-04-18T01:40:43.873Z,15.47
2023-04-18T01:41:43.910Z,15.79
2023-04-18T01:42:43.968Z,15.31
2023-04-18T01:43:43.992Z,15.24
2023-04-18T01:44:44.041Z,15.14
2023-04-18T01:45:44.078Z,14.84
2023-04-18T01:46:44.125Z,14.69
2023-04-18T01:47:44.225Z,14.38
2023-04-18T01:48:44.188Z,14.55
2023-04-18T01:49:44.234Z,14.57
2023-04-18T01:50:44.264Z,14.68
2023-04-18T01:51:44.323Z,14.73
2023-04-18T01:52:44.368Z,14.34
2023-04-18T01:53:44.403Z,14.50
2023-04-18T01:54:44.430Z,14.68
2023-04-18T01:55:44.579Z,14.35
2023-04-18T01:56:44.513Z,14.04
2023-04-18T01:57:44.560Z,14.30
2023-04-18T01:58:44.608Z,14.17
2023-04-18T01:59:44.656Z,14.09
2023-04-18T02:00:44.721Z,13.67
2023-04-18T02:01:44.753Z,14.19
2023-04-18T02:02:44.833Z,14.02
2023-04-18T02:03:44.928Z,13.58
2023-04-18T02:04:44.824Z,13.60
2023-04-18T02:05:44.876Z,13.88
2023-04-18T02:06:44.908Z,14.17
2023-04-18T02:07:44.943Z,14.14
2023-04-18T02:08:45.011Z,13.85
2023-04-18T02:09:45.008Z,13.60
2023-04-18T02:10:45.086Z,13.68
2023-04-18T02:11:45.088Z,14.04
2023-04-18T02:12:45.111Z,13.80
2023-04-18T02:13:45.165Z,13.55
2023-04-18T02:14:45.204Z,12.94
2023-04-18T02:15:45.237Z,13.20
2023-04-18T02:16:45.380Z,12.90
2023-04-18T02:17:45.359Z,13.24
2023-04-18T02:18:45.401Z,12.88
2023-04-18T02:19:45.394Z,13.59
2023-04-18T02:20:45.442Z,13.19
2023-04-18T02:21:45.482Z,12.79
2023-04-18T02:22:45.527Z,13.05
2023-04-18T02:23:45.540Z,13.25
2023-04-18T02:24:45.578Z,12.74
2023-04-18T02:25:45.638Z,12.91
2023-04-18T02:26:45.675Z,13.04
2023-04-18T02:27:45.707Z,13.03
2023-04-18T02:28:45.718Z,12.44
2023-04-18T02:29:45.760Z,12.62
2023-04-18T02:30:45.794Z,13.03
2023-04-18T02:31:45.936Z,13.43
2023-04-18T02:32:45.916Z,13.08
2023-04-18T02:33:45.919Z,12.70
2023-04-18T02:34:45.985Z,13.19
2023-04-18T02:35:46.014Z,13.56
2023-04-18T02:36:46.060Z,13.44
2023-04-18T02:37:46.096Z,12.61
2023-04-18T02:38:46.131Z,12.69
2023-04-18T02:39:46.155Z,12.47
2023-04-18T02:40:46.185Z,12.93
2023-04-18T02:41:46.241Z,13.19
2023-04-18T02:42:46.268Z,12.56
2023-04-18T02:43:46.321Z,13.14
2023-04-18T02:44:46.344Z,12.79
2023-04-18T02:45:46.458Z,13.09
2023-04-18T02:46:46.464Z,12.68
2023-04-18T02:47:54.740Z,12.47
2023-04-18T02:48:47.468Z,12.49
2023-04-18T02:49:46.463Z,12.55
2023-04-18T02:50:46.435Z,12.62
2023-04-18T02:51:46.430Z,12.66
2023-04-18T02:52:46.441Z,12.87
2023-04-18T02:53:46.433Z,12.96
2023-04-18T02:54:46.416Z,12.64
2023-04-18T02:55:46.407Z,12.21
2023-04-18T02:56:46.402Z,12.15
2023-04-18T02:57:46.411Z,12.72
2023-04-18T02:58:46.398Z,12.67
2023-04-18T02:59:46.466Z,12.91
2023-04-18T03:00:46.456Z,12.78
2023-04-18T03:01:46.601Z,13.26
2023-04-18T03:02:46.649Z,12.89
2023-04-18T03:03:46.600Z,12.92
2023-04-18T03:04:46.642Z,13.26
2023-04-18T03:05:46.685Z,12.90
2023-04-18T03:06:46.726Z,12.59
2023-04-18T03:07:46.751Z,12.63
2023-04-18T03:08:46.809Z,12.79
2023-04-18T03:09:46.829Z,12.72
2023-04-18T03:10:46.855Z,12.29
2023-04-18T03:11:46.907Z,12.52
2023-04-18T03:12:46.960Z,12.68
2023-04-18T03:13:46.988Z,13.01
2023-04-18T03:14:47.037Z,12.78
2023-04-18T03:15:47.076Z,12.42
2023-04-18T03:16:47.106Z,12.26
2023-04-18T03:17:47.169Z,12.38
2023-04-18T03:18:47.171Z,12.15
2023-04-18T03:19:47.229Z,12.17
2023-04-18T03:20:47.266Z,11.78
2023-04-18T03:21:47.314Z,12.35
2023-04-18T03:22:47.330Z,12.00
2023-04-18T03:23:47.375Z,12.53
2023-04-18T03:24:47.472Z,12.37
2023-04-18T03:25:47.451Z,11.97
2023-04-18T03:26:47.500Z,12.13
2023-04-18T03:27:47.527Z,11.89
2023-04-18T03:28:47.562Z,12.03
2023-04-18T03:29:47.619Z,12.22
2023-04-18T03:30:47.636Z,11.91
2023-04-18T03:31:47.727Z,11.45
2023-04-18T03:32:47.753Z,11.54
2023-04-18T03:33:47.758Z,11.43
2023-04-18T03:34:47.806Z,11.47
2023-04-18T03:35:47.854Z,11.61
2023-04-18T03:36:48.312Z,11.29
2023-04-18T03:37:47.944Z,11.63
2023-04-18T03:38:47.969Z,11.27
2023-04-18T03:39:48.030Z,10.95
2023-04-18T03:40:48.068Z,11.30
2023-04-18T03:41:48.138Z,11.37
2023-04-18T03:42:48.170Z,11.30
2023-04-18T03:43:48.191Z,11.25
2023-04-18T03:44:48.225Z,11.19
2023-04-18T03:45:48.308Z,11.55
2023-04-18T03:46:48.341Z,11.06
2023-04-18T03:47:48.441Z,11.06
2023-04-18T03:48:48.427Z,11.36
2023-04-18T03:49:48.470Z,11.56
2023-04-18T03:50:48.512Z,11.12
2023-04-18T03:51:48.574Z,10.97
2023-04-18T03:52:48.575Z,11.61
2023-04-18T03:53:48.617Z,11.46
2023-04-18T03:54:48.667Z,11.75
2023-04-18T03:55:48.715Z,10.97
2023-04-18T03:56:48.848Z,11.30
2023-04-18T03:57:48.811Z,11.28
2023-04-18T03:58:48.857Z,11.08
2023-04-18T03:59:48.879Z,10.86
2023-04-18T04:00:48.924Z,10.95
2023-04-18T04:01:49.033Z,10.87
2023-04-18T04:02:49.134Z,11.14
2023-04-18T04:03:49.197Z,10.92
2023-04-18T04:04:49.170Z,10.96
2023-04-18T04:05:49.132Z,10.75
2023-04-18T04:06:49.179Z,10.80
2023-04-18T04:07:49.231Z,11.01
2023-04-18T04:08:49.279Z,11.07
2023-04-18T04:09:49.316Z,11.02
2023-04-18T04:10:49.353Z,10.79
2023-04-18T04:11:49.395Z,10.75
2023-04-18T04:12:49.470Z,10.47
2023-04-18T04:13:49.485Z,10.55
2023-04-18T04:14:49.525Z,10.48
2023-04-18T04:15:49.567Z,10.94
2023-04-18T04:16:49.763Z,10.60
2023-04-18T04:17:49.828Z,10.65
2023-04-18T04:18:49.725Z,10.29
2023-04-18T04:19:49.767Z,10.90
2023-04-18T04:20:49.799Z,10.48
2023-04-18T04:21:49.834Z,10.57
2023-04-18T04:22:49.886Z,10.28
2023-04-18T04:23:49.933Z,10.00
2023-04-18T04:24:49.975Z,10.38
2023-04-18T04:25:50.024Z,10.52
2023-04-18T04:26:50.081Z,10.26
2023-04-18T04:27:50.138Z,10.59
2023-04-18T04:28:50.159Z,10.50
2023-04-18T04:29:50.230Z,10.26
2023-04-18T04:30:50.266Z,9.84
2023-04-18T04:31:50.324Z,10.26
2023-04-18T04:32:50.406Z,10.08
2023-04-18T04:33:50.400Z,9.99
2023-04-18T04:34:50.453Z,10.02
2023-04-18T04:35:50.485Z,10.12
2023-04-18T04:36:50.527Z,10.15
2023-04-18T04:37:50.575Z,10.35
2023-04-18T04:38:50.623Z,9.97
2023-04-18T04:39:50.675Z,10.03
2023-04-18T04:40:50.710Z,10.06
2023-04-18T04:41:50.745Z,9.96
2023-04-18T04:42:50.807Z,9.78
2023-04-18T04:43:50.863Z,9.93
2023-04-18T04:44:50.958Z,9.97
2023-04-18T04:45:50.995Z,9.98
2023-04-18T04:46:50.970Z,10.05
2023-04-18T04:47:51.061Z,10.27
2023-04-18T04:48:51.064Z,10.32
2023-04-18T04:49:51.152Z,10.44
2023-04-18T04:50:51.165Z,10.75
2023-04-18T04:51:51.190Z,10.68
2023-04-18T04:52:51.230Z,10.40
2023-04-18T04:53:51.279Z,10.55
2023-04-18T04:54:51.325Z,10.69
2023-04-18T04:55:51.371Z,10.60
2023-04-18T04:56:51.438Z,10.55
2023-04-18T04:57:51.491Z,10.49
2023-04-18T04:58:51.548Z,10.54
2023-04-18T04:59:51.574Z,9.76
2023-04-18T05:00:51.645Z,10.18
2023-04-18T05:01:51.721Z,10.42
2023-04-18T05:02:51.811Z,10.03
2023-04-18T05:03:51.912Z,10.46
2023-04-18T05:04:51.819Z,10.68
2023-04-18T05:05:51.864Z,10.48
2023-04-18T05:06:51.899Z,10.30
2023-04-18T05:07:51.932Z,10.57
2023-04-18T05:08:51.987Z,10.34
2023-04-18T05:09:52.028Z,10.45
2023-04-18T05:10:52.060Z,10.80
2023-04-18T05:11:52.122Z,10.55
2023-04-18T05:12:52.172Z,10.58
2023-04-18T05:13:52.226Z,10.46
2023-04-18T05:14:52.260Z,10.60
2023-04-18T05:15:52.303Z,10.51
2023-04-18T05:16:52.350Z,10.50
2023-04-18T05:17:52.480Z,10.48
2023-04-18T05:18:52.436Z,10.20
2023-04-18T05:19:52.489Z,10.29
2023-04-18T05:20:52.546Z,10.26
2023-04-18T05:21:52.568Z,10.41
2023-04-18T05:22:52.668Z,10.61
2023-04-18T05:23:52.666Z,10.44
2023-04-18T05:24:52.692Z,10.66
2023-04-18T05:25:52.736Z,10.47
2023-04-18T05:26:52.821Z,10.91
2023-04-18T05:27:52.857Z,11.34
2023-04-18T05:28:52.877Z,12.41
2023-04-18T05:29:52.942Z,12.48
2023-04-18T05:30:53.006Z,12.57
2023-04-18T05:31:53.012Z,12.74
2023-04-18T05:32:53.104Z,10.48
2023-04-18T05:33:53.121Z,10.79
2023-04-18T05:34:53.119Z,11.00
2023-04-18T05:35:53.168Z,10.94
2023-04-18T05:36:53.203Z,9.55
2023-04-18T05:37:53.240Z,9.72
2023-04-18T05:38:53.262Z,8.60
2023-04-18T05:39:53.308Z,8.59
2023-04-18T05:40:53.305Z,9.08
2023-04-18T05:41:53.300Z,10.76
2023-04-18T05:42:53.348Z,11.06
2023-04-18T05:44:04.245Z,11.84
2023-04-18T05:44:54.407Z,11.89
2023-04-18T05:45:54.292Z,12.18
2023-04-18T05:46:53.408Z,12.50
2023-04-18T05:47:53.565Z,12.73
2023-04-18T05:48:53.504Z,13.28
2023-04-18T05:49:53.573Z,14.01
2023-04-18T05:50:53.572Z,15.54
2023-04-18T05:51:53.546Z,17.14
2023-04-18T05:52:53.638Z,18.09
2023-04-18T05:53:53.678Z,20.14
2023-04-18T05:54:54.026Z,21.23
2023-04-18T05:55:53.792Z,22.11
2023-04-18T05:56:53.763Z,22.55
2023-04-18T05:57:53.774Z,23.83
2023-04-18T05:58:53.784Z,25.33
2023-04-18T05:59:53.788Z,26.41
2023-04-18T06:00:53.790Z,27.94
2023-04-18T06:01:53.882Z,29.16
2023-04-18T06:02:54.210Z,30.38
2023-04-18T06:03:54.207Z,31.50
2023-04-18T06:04:54.178Z,32.71
2023-04-18T06:05:54.142Z,34.52
2023-04-18T06:06:54.101Z,35.42
2023-04-18T06:07:54.161Z,34.80
2023-04-18T06:08:54.200Z,36.80
2023-04-18T06:09:54.228Z,36.85
2023-04-18T06:10:54.273Z,37.67
2023-04-18T06:11:54.288Z,36.99
2023-04-18T06:12:54.316Z,38.06
2023-04-18T06:13:54.486Z,39.42
2023-04-18T06:14:54.413Z,38.57
2023-04-18T06:15:54.475Z,38.37
2023-04-18T06:16:54.450Z,38.86
2023-04-18T06:17:54.469Z,39.15
2023-04-18T06:18:54.460Z,38.42
2023-04-18T06:19:54.506Z,37.51
2023-04-18T06:20:54.521Z,37.82
2023-04-18T06:21:54.529Z,37.75
2023-04-18T06:22:54.545Z,39.63
2023-04-18T06:23:54.575Z,40.06
2023-04-18T06:24:54.582Z,40.30
2023-04-18T06:25:54.602Z,39.62
2023-04-18T06:26:54.648Z,40.25
2023-04-18T06:27:54.641Z,41.70
2023-04-18T06:28:54.686Z,40.83
2023-04-18T06:29:54.690Z,40.34
2023-04-18T06:30:54.703Z,40.42
2023-04-18T06:31:54.769Z,32.73
2023-04-18T06:32:54.758Z,33.05
2023-04-18T06:33:54.764Z,22.09
2023-04-18T06:34:54.785Z,13.61
2023-04-18T06:35:54.813Z,11.54
2023-04-18T06:36:54.882Z,10.98
2023-04-18T06:37:54.943Z,12.55
2023-04-18T06:38:54.973Z,14.54
2023-04-18T06:39:55.057Z,15.41
2023-04-18T06:40:55.091Z,16.71
2023-04-18T06:41:55.177Z,18.23
2023-04-18T06:42:55.216Z,19.31
2023-04-18T06:44:03.612Z,20.52
2023-04-18T06:44:56.510Z,20.61
2023-04-18T06:45:55.256Z,20.97
2023-04-18T06:46:55.253Z,21.69
2023-04-18T06:47:55.280Z,22.55
2023-04-18T06:48:55.285Z,23.37
2023-04-18T06:49:55.223Z,23.74
2023-04-18T06:50:55.208Z,25.14
2023-04-18T06:51:55.202Z,26.75
2023-04-18T06:52:55.210Z,25.71
2023-04-18T06:53:55.201Z,26.09
2023-04-18T06:54:55.187Z,26.79
2023-04-18T06:55:55.194Z,25.13
2023-04-18T06:56:55.153Z,20.27
2023-04-18T06:57:55.166Z,16.39
2023-04-18T06:58:55.512Z,14.41
2023-04-18T06:59:55.176Z,13.53
2023-04-18T07:00:55.196Z,13.24
2023-04-18T07:01:55.236Z,13.82
2023-04-18T07:02:55.337Z,12.51
2023-04-18T07:03:55.605Z,12.74
2023-04-18T07:04:55.335Z,13.29
2023-04-18T07:05:55.366Z,12.71
2023-04-18T07:06:55.430Z,12.23
2023-04-18T07:07:55.554Z,11.28
2023-04-18T07:08:55.569Z,11.59
2023-04-18T07:09:55.558Z,11.24
2023-04-18T07:10:55.625Z,10.97
2023-04-18T07:11:55.726Z,9.47
2023-04-18T07:12:55.765Z,10.01
2023-04-18T07:13:55.801Z,19.86
2023-04-18T07:14:55.806Z,13.73
2023-04-18T07:15:55.842Z,13.49
2023-04-18T07:16:55.849Z,12.94
2023-04-18T07:17:55.937Z,13.57
2023-04-18T07:18:55.879Z,12.63
2023-04-18T07:19:55.885Z,11.04
2023-04-18T07:20:55.866Z,10.99
2023-04-18T07:21:55.865Z,10.89
2023-04-18T07:22:55.892Z,10.91
2023-04-18T07:23:55.908Z,11.82
2023-04-18T07:24:55.918Z,11.80
2023-04-18T07:25:55.938Z,12.11
2023-04-18T07:26:55.945Z,9.34
2023-04-18T07:27:55.936Z,6.57
2023-04-18T07:28:55.951Z,4.92
2023-04-18T07:29:55.986Z,3.57
2023-04-18T07:30:56.522Z,3.66
2023-04-18T07:31:56.098Z,4.36
2023-04-18T07:32:56.078Z,4.69
2023-04-18T07:33:56.513Z,5.17
2023-04-18T07:34:56.075Z,6.05
2023-04-18T07:35:56.514Z,6.55
2023-04-18T07:36:56.165Z,6.88
2023-04-18T07:37:56.208Z,7.31
2023-04-18T07:38:56.236Z,8.57
2023-04-18T07:39:56.248Z,10.95
2023-04-18T07:40:56.546Z,11.49
2023-04-18T07:41:56.302Z,13.00
2023-04-18T07:42:56.358Z,14.09
2023-04-18T07:43:56.540Z,15.08
2023-04-18T07:44:56.446Z,15.63
2023-04-18T07:45:56.534Z,16.31
2023-04-18T07:46:56.495Z,16.61
2023-04-18T07:47:56.538Z,16.89
2023-04-18T07:48:57.047Z,17.34
2023-04-18T07:49:56.558Z,17.25
2023-04-18T07:50:56.568Z,17.46
2023-04-18T07:51:56.602Z,17.79
2023-04-18T07:52:56.582Z,17.83
2023-04-18T07:53:56.617Z,17.85
2023-04-18T07:54:56.632Z,17.82
2023-04-18T07:55:56.665Z,18.01
2023-04-18T07:56:56.692Z,18.20
2023-04-18T07:57:56.760Z,18.36
2023-04-18T07:58:56.851Z,18.86
2023-04-18T07:59:56.870Z,19.00
2023-04-18T08:00:56.911Z,19.80
2023-04-18T08:01:56.972Z,19.99
2023-04-18T08:02:57.104Z,20.03
2023-04-18T08:03:57.142Z,20.22
2023-04-18T08:04:57.268Z,20.38
2023-04-18T08:05:57.158Z,20.57
2023-04-18T08:06:57.228Z,20.47
2023-04-18T08:07:57.269Z,20.88
2023-04-18T08:08:57.317Z,20.30
2023-04-18T08:09:57.386Z,20.53
2023-04-18T08:10:57.467Z,21.07
2023-04-18T08:11:57.527Z,21.34
2023-04-18T08:12:57.554Z,20.63
2023-04-18T08:13:57.608Z,20.54
2023-04-18T08:14:58.037Z,20.77
2023-04-18T08:15:57.795Z,20.65
2023-04-18T08:16:57.794Z,20.93
2023-04-18T08:17:57.881Z,20.07
2023-04-18T08:18:57.943Z,20.67
2023-04-18T08:19:58.027Z,20.37
2023-04-18T08:20:58.045Z,21.02
2023-04-18T08:21:58.077Z,20.25
2023-04-18T08:23:07.577Z,20.22
2023-04-18T08:23:59.101Z,20.22
2023-04-18T08:25:04.908Z,20.31
2023-04-18T08:25:59.085Z,20.25
2023-04-18T08:26:58.086Z,19.24
2023-04-18T08:27:58.122Z,20.12
2023-04-18T08:28:58.155Z,20.35
2023-04-18T08:29:58.543Z,19.96
2023-04-18T08:30:58.266Z,16.52
2023-04-18T08:31:58.363Z,14.65
2023-04-18T08:32:58.447Z,13.24
2023-04-18T08:33:58.428Z,10.95
2023-04-18T08:34:58.536Z,9.34
2023-04-18T08:35:58.551Z,7.74
2023-04-18T08:36:58.623Z,9.54
2023-04-18T08:37:58.668Z,10.73
2023-04-18T08:38:58.681Z,12.58
2023-04-18T08:39:58.716Z,13.06
2023-04-18T08:40:58.751Z,13.38
2023-04-18T08:41:58.783Z,13.95
2023-04-18T08:42:58.829Z,12.73
2023-04-18T08:43:58.855Z,11.61
2023-04-18T08:44:58.900Z,10.33
2023-04-18T08:45:58.942Z,9.52
2023-04-18T08:46:58.919Z,9.12
2023-04-18T08:47:58.967Z,8.66
2023-04-18T08:48:58.964Z,8.41
2023-04-18T08:49:58.965Z,8.20
2023-04-18T08:50:58.977Z,7.35
2023-04-18T08:51:59.101Z,7.48
2023-04-18T08:52:58.961Z,8.19
2023-04-18T08:53:58.945Z,8.14
2023-04-18T08:54:58.954Z,7.88
2023-04-18T08:55:59.051Z,7.64
2023-04-18T08:56:58.973Z,7.60
2023-04-18T08:57:58.976Z,7.50
2023-04-18T08:58:59.005Z,6.87
2023-04-18T08:59:58.997Z,6.66
2023-04-18T09:00:59.123Z,5.78
2023-04-18T09:01:59.287Z,5.49
2023-04-18T09:02:59.231Z,5.38
2023-04-18T09:03:59.160Z,4.91
2023-04-18T09:04:59.140Z,4.62
2023-04-18T09:05:59.547Z,5.00
2023-04-18T09:06:59.155Z,4.71
2023-04-18T09:07:59.165Z,4.20
2023-04-18T09:08:59.383Z,4.22
2023-04-18T09:09:59.205Z,4.01
2023-04-18T09:10:59.254Z,4.22
2023-04-18T09:11:59.228Z,3.60
2023-04-18T09:12:59.239Z,3.83
2023-04-18T09:13:59.324Z,3.45
2023-04-18T09:14:59.287Z,2.88
2023-04-18T09:15:59.575Z,2.89
2023-04-18T09:16:59.453Z,2.89
2023-04-18T09:17:59.394Z,3.05
2023-04-18T09:18:59.376Z,3.00
2023-04-18T09:19:59.444Z,3.08
2023-04-18T09:20:59.457Z,2.82
2023-04-18T09:21:59.428Z,2.76
2023-04-18T09:22:59.445Z,2.91
2023-04-18T09:23:59.458Z,3.91
2023-04-18T09:24:59.592Z,4.73
2023-04-18T09:25:59.532Z,5.46
2023-04-18T09:26:59.516Z,5.30
2023-04-18T09:27:59.487Z,6.01
2023-04-18T09:28:59.469Z,6.73
2023-04-18T09:29:59.579Z,6.73
2023-04-18T09:30:59.539Z,8.48
2023-04-18T09:31:59.522Z,16.36
2023-04-18T09:32:59.674Z,15.20
2023-04-18T09:33:59.577Z,13.91
2023-04-18T09:35:01.372Z,13.15
2023-04-18T09:36:00.079Z,14.20
2023-04-18T09:36:59.671Z,13.76
2023-04-18T09:37:59.614Z,13.11
2023-04-18T09:38:59.600Z,12.55
2023-04-18T09:39:59.698Z,11.79
2023-04-18T09:40:59.595Z,11.35
2023-04-18T09:41:59.576Z,8.65
2023-04-18T09:42:59.561Z,5.75
2023-04-18T09:43:59.554Z,4.30
2023-04-18T09:44:59.583Z,3.33
2023-04-18T09:45:59.591Z,2.00
2023-04-18T09:46:59.567Z,1.14
2023-04-18T09:47:59.605Z,2.84
2023-04-18T09:48:59.533Z,4.70
2023-04-18T09:49:59.540Z,4.75
2023-04-18T09:50:59.533Z,4.95
2023-04-18T09:51:59.573Z,5.22
2023-04-18T09:52:59.501Z,5.25
2023-04-18T09:53:59.511Z,5.58
2023-04-18T09:54:59.508Z,5.34
2023-04-18T09:55:59.539Z,4.58
2023-04-18T09:56:59.477Z,3.02
2023-04-18T09:57:59.478Z,3.37
2023-04-18T09:58:59.461Z,1.93
2023-04-18T09:59:59.462Z,2.09
2023-04-18T10:00:59.585Z,1.79
2023-04-18T10:01:59.640Z,1.64
2023-04-18T10:02:59.542Z,1.95
2023-04-18T10:03:59.601Z,1.73
2023-04-18T10:04:59.505Z,1.36
2023-04-18T10:05:59.434Z,1.19
2023-04-18T10:06:59.403Z,1.04
2023-04-18T10:07:59.472Z,1.05
2023-04-18T10:08:59.510Z,1.21
2023-04-18T10:09:59.560Z,1.87
2023-04-18T10:10:59.638Z,1.29
2023-04-18T10:11:59.740Z,1.35
2023-04-18T10:12:59.686Z,2.06
2023-04-18T10:13:59.716Z,1.30
2023-04-18T10:14:59.793Z,1.71
2023-04-18T10:15:59.849Z,1.30
2023-04-18T10:16:59.855Z,1.33
2023-04-18T10:18:05.082Z,0.88
2023-04-18T10:19:01.267Z,0.89
2023-04-18T10:19:59.887Z,0.86
2023-04-18T10:20:59.865Z,0.74
2023-04-18T10:22:00.091Z,0.88
2023-04-18T10:22:59.891Z,1.16
2023-04-18T10:23:59.864Z,0.60
2023-04-18T10:24:59.849Z,0.34
2023-04-18T10:25:59.850Z,0.34
2023-04-18T10:27:00.107Z,0.34
2023-04-18T10:27:59.848Z,0.34
2023-04-18T10:28:59.828Z,0.34
2023-04-18T10:29:59.807Z,0.34
2023-04-18T10:30:59.828Z,0.34
2023-04-18T10:32:00.043Z,0.34
2023-04-18T10:32:59.858Z,0.34
2023-04-18T10:34:05.417Z,0.34
2023-04-18T10:35:00.760Z,0.34
2023-04-18T10:36:00.119Z,0.34
2023-04-18T10:36:59.748Z,0.34
2023-04-18T10:37:59.758Z,0.34
2023-04-18T10:38:59.755Z,0.34
2023-04-18T10:39:59.733Z,0.34
2023-04-18T10:41:00.126Z,0.34
2023-04-18T10:41:59.725Z,0.34
2023-04-18T10:42:59.730Z,0.34
2023-04-18T10:43:59.732Z,0.34
2023-04-18T10:44:59.681Z,0.34
2023-04-18T10:45:59.680Z,0.34
2023-04-18T10:46:59.735Z,0.45
2023-04-18T10:47:59.711Z,0.83
2023-04-18T10:48:59.701Z,0.97
2023-04-18T10:49:59.730Z,1.00
2023-04-18T10:50:59.722Z,1.27
2023-04-18T10:51:59.728Z,1.76
2023-04-18T10:52:59.784Z,2.19
2023-04-18T10:53:59.857Z,2.78
2023-04-18T10:54:59.915Z,3.17
2023-04-18T10:55:59.982Z,3.63
2023-04-18T10:57:00.024Z,4.60
2023-04-18T10:58:00.064Z,5.06
2023-04-18T10:59:00.106Z,4.70
2023-04-18T11:00:00.182Z,5.50
2023-04-18T11:01:00.282Z,5.27
2023-04-18T11:02:00.256Z,6.72
2023-04-18T11:03:00.477Z,7.05
2023-04-18T11:04:00.465Z,7.27
2023-04-18T11:05:00.297Z,8.33
2023-04-18T11:06:00.310Z,9.09
2023-04-18T11:07:00.342Z,9.59
2023-04-18T11:08:00.369Z,11.20
2023-04-18T11:09:00.392Z,11.76
2023-04-18T11:10:00.446Z,13.29
2023-04-18T11:11:00.596Z,14.06
2023-04-18T11:12:00.613Z,15.06
2023-04-18T11:13:00.499Z,15.51
2023-04-18T11:14:00.498Z,18.34
2023-04-18T11:15:00.525Z,14.76
2023-04-18T11:16:00.646Z,14.39
2023-04-18T11:17:00.610Z,20.25
2023-04-18T11:18:00.656Z,20.40
2023-04-18T11:19:00.621Z,25.25
2023-04-18T11:20:00.675Z,28.26
2023-04-18T11:21:00.671Z,30.17
2023-04-18T11:22:01.112Z,30.50
2023-04-18T11:23:00.702Z,38.30
2023-04-18T11:24:00.726Z,42.88
2023-04-18T11:25:00.780Z,47.42
2023-04-18T11:26:00.769Z,56.05
2023-04-18T11:27:00.802Z,59.01
2023-04-18T11:28:00.875Z,60.83
2023-04-18T11:29:00.859Z,63.00
2023-04-18T11:30:00.879Z,68.69
2023-04-18T11:31:00.876Z,78.39
2023-04-18T11:32:00.908Z,85.66
2023-04-18T11:33:00.924Z,96.18
2023-04-18T11:34:00.929Z,105.17
2023-04-18T11:35:00.950Z,120.46
2023-04-18T11:36:00.977Z,121.30
2023-04-18T11:37:01.025Z,130.42
2023-04-18T11:38:01.025Z,137.15
2023-04-18T11:39:01.037Z,140.96
2023-04-18T11:40:01.029Z,145.46
2023-04-18T11:41:01.041Z,137.82
2023-04-18T11:42:01.080Z,139.22
2023-04-18T11:43:01.082Z,147.79
2023-04-18T11:44:01.181Z,128.98
2023-04-18T11:45:01.080Z,131.01
2023-04-18T11:46:01.237Z,143.72
2023-04-18T11:47:01.214Z,143.87
2023-04-18T11:48:01.274Z,143.15
2023-04-18T11:49:01.218Z,146.26
2023-04-18T11:50:01.249Z,153.00
2023-04-18T11:51:01.244Z,148.04
2023-04-18T11:52:01.302Z,133.23
2023-04-18T11:53:01.318Z,131.70
2023-04-18T11:54:01.350Z,145.35
2023-04-18T11:55:01.350Z,121.23
2023-04-18T11:56:01.369Z,111.87
2023-04-18T11:57:01.386Z,118.86
2023-04-18T11:58:01.409Z,132.78
2023-04-18T11:59:01.463Z,110.41
2023-04-18T12:00:01.376Z,124.91
2023-04-18T12:01:01.431Z,136.94
2023-04-18T12:02:12.562Z,103.44
2023-04-18T12:03:02.585Z,96.63
2023-04-18T12:04:01.695Z,76.65
2023-04-18T12:05:01.603Z,79.75
2023-04-18T12:06:01.531Z,90.63
2023-04-18T12:07:01.377Z,26.23
2023-04-18T12:08:01.392Z,12.47
2023-04-18T12:09:01.376Z,5.93
2023-04-18T12:10:01.358Z,5.61
2023-04-18T12:11:01.357Z,5.42
2023-04-18T12:12:01.350Z,5.49
2023-04-18T12:13:01.337Z,7.52
2023-04-18T12:14:02.996Z,7.61
2023-04-18T12:15:01.321Z,7.43
2023-04-18T12:16:01.359Z,7.82
2023-04-18T12:17:01.305Z,9.09
2023-04-18T12:18:01.433Z,10.36
2023-04-18T12:19:01.298Z,10.44
2023-04-18T12:20:01.282Z,10.60
2023-04-18T12:21:01.279Z,12.02
2023-04-18T12:22:01.651Z,23.45
2023-04-18T12:23:01.280Z,30.49
2023-04-18T12:24:01.262Z,38.72
2023-04-18T12:25:01.258Z,41.44
2023-04-18T12:26:01.275Z,43.45
2023-04-18T12:27:01.247Z,49.98
2023-04-18T12:28:01.255Z,54.95
2023-04-18T12:29:01.247Z,51.33
2023-04-18T12:30:01.217Z,55.36
2023-04-18T12:31:01.265Z,55.45
2023-04-18T12:32:01.308Z,54.31
2023-04-18T12:33:01.276Z,52.91
2023-04-18T12:34:01.173Z,60.41
2023-04-18T12:35:01.193Z,61.73
2023-04-18T12:36:01.170Z,70.22
2023-04-18T12:37:01.649Z,73.75
2023-04-18T12:38:01.160Z,92.32
2023-04-18T12:39:01.139Z,88.02
2023-04-18T12:40:01.161Z,91.71
2023-04-18T12:41:01.173Z,61.75
2023-04-18T12:42:01.138Z,91.27
2023-04-18T12:43:03.440Z,104.55
2023-04-18T12:44:01.099Z,105.01
2023-04-18T12:45:01.096Z,108.46
2023-04-18T12:46:01.094Z,114.40
2023-04-18T12:47:01.115Z,129.24
2023-04-18T12:48:01.169Z,150.62
2023-04-18T12:49:01.093Z,150.56
2023-04-18T12:50:01.064Z,147.32
2023-04-18T12:51:01.072Z,147.54
2023-04-18T12:52:01.091Z,157.74
2023-04-18T12:53:01.057Z,170.25
2023-04-18T12:54:01.037Z,171.96
2023-04-18T12:55:01.071Z,169.79
2023-04-18T12:56:01.046Z,187.03
2023-04-18T12:57:01.036Z,211.01